sensor_id;sensor_type;location;lat;lon;timestamp;pressure;altitude;pressure_sealevel;temperature;humidity
3960;BME280;1994;48.640;8.894;2022-10-15T00:01:12;95518.75;;;14.25;100.00
3960;BME280;1994;48.640;8.894;2022-10-15T00:03:40;95517.47;;;14.23;100.00
3960;BME280;1994;48.640;8.894;2022-10-15T00:06:13;95522.13;;;14.26;100.00
3960;BME280;1994;48.640;8.894;2022-10-15T00:08:40;95524.47;;;14.22;100.00
3960;BME280;1994;48.640;8.894;2022-10-15T00:11:27;95523.72;;;14.22;100.00
3960;BME280;1994;48.640;8.894;2022-10-15T00:13:56;95518.44;;;14.32;100.00
3960;BME280;1994;48.640;8.894;2022-10-15T00:16:26;95517.91;;;14.35;100.00
3960;BME280;1994;48.640;8.894;2022-10-15T00:18:56;95521.63;;;14.24;100.00
3960;BME280;1994;48.640;8.894;2022-10-15T00:21:22;95517.91;;;14.35;100.00
3960;BME280;1994;48.640;8.894;2022-10-15T00:23:48;95520.22;;;14.41;100.00
3960;BME280;1994;48.640;8.894;2022-10-15T00:26:21;95524.66;;;14.36;100.00
3960;BME280;1994;48.640;8.894;2022-10-15T00:28:50;95516.88;;;14.31;100.00
3960;BME280;1994;48.640;8.894;2022-10-15T00:31:18;95526.75;;;14.34;100.00
3960;BME280;1994;48.640;8.894;2022-10-15T00:33:53;95526.72;;;14.39;100.00
3960;BME280;1994;48.640;8.894;2022-10-15T00:36:24;95522.81;;;14.41;100.00
3960;BME280;1994;48.640;8.894;2022-10-15T00:38:51;95523.03;;;14.45;100.00
3960;BME280;1994;48.640;8.894;2022-10-15T00:41:33;95528.25;;;14.45;100.00
3960;BME280;1994;48.640;8.894;2022-10-15T00:46:45;95522.56;;;14.38;100.00
3960;BME280;1994;48.640;8.894;2022-10-15T00:49:24;95517.84;;;14.45;100.00
3960;BME280;1994;48.640;8.894;2022-10-15T00:52:04;95507.91;;;14.47;100.00
3960;BME280;1994;48.640;8.894;2022-10-15T00:54:36;95505.56;;;14.45;100.00
3960;BME280;1994;48.640;8.894;2022-10-15T00:57:04;95506.84;;;14.48;100.00
3960;BME280;1994;48.640;8.894;2022-10-15T00:59:31;95511.59;;;14.41;100.00
3960;BME280;1994;48.640;8.894;2022-10-15T01:01:59;95504.28;;;14.43;100.00
3960;BME280;1994;48.640;8.894;2022-10-15T01:04:26;95499.63;;;14.40;100.00
3960;BME280;1994;48.640;8.894;2022-10-15T01:06:53;95498.00;;;14.49;100.00
3960;BME280;1994;48.640;8.894;2022-10-15T01:09:18;95491.44;;;14.51;100.00
3960;BME280;1994;48.640;8.894;2022-10-15T01:11:48;95495.94;;;14.46;100.00
3960;BME280;1994;48.640;8.894;2022-10-15T01:17:52;95486.56;;;14.45;100.00
3960;BME280;1994;48.640;8.894;2022-10-15T01:24:02;95482.38;;;14.49;100.00
3960;BME280;1994;48.640;8.894;2022-10-15T01:30:32;95488.59;;;14.48;100.00
3960;BME280;1994;48.640;8.894;2022-10-15T01:33:39;95483.59;;;14.56;100.00
3960;BME280;1994;48.640;8.894;2022-10-15T01:36:21;95470.75;;;14.65;100.00
3960;BME280;1994;48.640;8.894;2022-10-15T01:39:09;95469.19;;;14.64;100.00
3960;BME280;1994;48.640;8.894;2022-10-15T01:41:46;95474.97;;;14.61;100.00
3960;BME280;1994;48.640;8.894;2022-10-15T01:44:35;95469.75;;;14.61;100.00
3960;BME280;1994;48.640;8.894;2022-10-15T01:47:11;95471.31;;;14.62;100.00
3960;BME280;1994;48.640;8.894;2022-10-15T01:49:42;95471.31;;;14.62;100.00
3960;BME280;1994;48.640;8.894;2022-10-15T01:52:22;95473.88;;;14.67;100.00
3960;BME280;1994;48.640;8.894;2022-10-15T01:54:49;95475.97;;;14.65;100.00
3960;BME280;1994;48.640;8.894;2022-10-15T01:57:19;95464.19;;;14.67;100.00
3960;BME280;1994;48.640;8.894;2022-10-15T01:59:45;95476.53;;;14.62;100.00
3960;BME280;1994;48.640;8.894;2022-10-15T02:02:12;95472.09;;;14.62;100.00
3960;BME280;1994;48.640;8.894;2022-10-15T02:04:38;95480.59;;;14.73;100.00
3960;BME280;1994;48.640;8.894;2022-10-15T02:07:53;95470.16;;;14.73;100.00
3960;BME280;1994;48.640;8.894;2022-10-15T02:19:16;95476.84;;;14.84;100.00
3960;BME280;1994;48.640;8.894;2022-10-15T02:21:47;95471.91;;;14.82;100.00
3960;BME280;1994;48.640;8.894;2022-10-15T02:24:22;95471.69;;;14.79;100.00
3960;BME280;1994;48.640;8.894;2022-10-15T02:26:56;95474.25;;;14.84;100.00
3960;BME280;1994;48.640;8.894;2022-10-15T02:29:26;95478.34;;;14.90;100.00
3960;BME280;1994;48.640;8.894;2022-10-15T02:31:56;95484.00;;;14.97;100.00
3960;BME280;1994;48.640;8.894;2022-10-15T02:34:28;95482.19;;;14.97;100.00
3960;BME280;1994;48.640;8.894;2022-10-15T02:36:58;95477.47;;;14.99;100.00
3960;BME280;1994;48.640;8.894;2022-10-15T02:39:26;95488.00;;;14.89;100.00
3960;BME280;1994;48.640;8.894;2022-10-15T02:41:53;95489.84;;;14.89;100.00
3960;BME280;1994;48.640;8.894;2022-10-15T02:44:19;95487.69;;;14.96;100.00
3960;BME280;1994;48.640;8.894;2022-10-15T02:46:45;95486.34;;;14.98;100.00
3960;BME280;1994;48.640;8.894;2022-10-15T02:49:11;95487.63;;;15.01;100.00
3960;BME280;1994;48.640;8.894;2022-10-15T02:51:37;95477.69;;;15.03;100.00
3960;BME280;1994;48.640;8.894;2022-10-15T02:54:05;95481.34;;;15.02;100.00
3960;BME280;1994;48.640;8.894;2022-10-15T02:56:31;95483.91;;;15.07;100.00
3960;BME280;1994;48.640;8.894;2022-10-15T02:58:57;95483.16;;;15.06;100.00
3960;BME280;1994;48.640;8.894;2022-10-15T03:01:23;95485.88;;;15.20;100.00
3960;BME280;1994;48.640;8.894;2022-10-15T03:03:49;95494.25;;;15.17;100.00
3960;BME280;1994;48.640;8.894;2022-10-15T03:06:15;95492.13;;;15.19;100.00
3960;BME280;1994;48.640;8.894;2022-10-15T03:08:41;95494.69;;;15.24;100.00
3960;BME280;1994;48.640;8.894;2022-10-15T03:11:08;95495.47;;;15.24;100.00
3960;BME280;1994;48.640;8.894;2022-10-15T03:13:38;95496.25;;;15.25;100.00
3960;BME280;1994;48.640;8.894;2022-10-15T03:16:06;95497.34;;;15.19;100.00
3960;BME280;1994;48.640;8.894;2022-10-15T03:18:32;95490.03;;;15.21;100.00
3960;BME280;1994;48.640;8.894;2022-10-15T03:20:58;95493.16;;;15.23;100.00
3960;BME280;1994;48.640;8.894;2022-10-15T03:23:25;95494.16;;;15.27;100.00
3960;BME280;1994;48.640;8.894;2022-10-15T03:25:50;95489.16;;;15.30;100.00
3960;BME280;1994;48.640;8.894;2022-10-15T03:28:17;95489.47;;;15.24;100.00
3960;BME280;1994;48.640;8.894;2022-10-15T03:30:43;95493.59;;;15.30;100.00
3960;BME280;1994;48.640;8.894;2022-10-15T03:33:09;95500.91;;;15.33;100.00
3960;BME280;1994;48.640;8.894;2022-10-15T03:35:35;95501.38;;;15.35;100.00
3960;BME280;1994;48.640;8.894;2022-10-15T03:38:01;95506.13;;;15.28;100.00
3960;BME280;1994;48.640;8.894;2022-10-15T03:40:27;95513.41;;;15.36;100.00
3960;BME280;1994;48.640;8.894;2022-10-15T03:42:53;95510.72;;;15.41;100.00
3960;BME280;1994;48.640;8.894;2022-10-15T03:45:19;95518.63;;;15.36;100.00
3960;BME280;1994;48.640;8.894;2022-10-15T03:47:45;95510.81;;;15.31;100.00
3960;BME280;1994;48.640;8.894;2022-10-15T03:50:11;95520.47;;;15.30;100.00
3960;BME280;1994;48.640;8.894;2022-10-15T03:52:37;95516.56;;;15.33;100.00
3960;BME280;1994;48.640;8.894;2022-10-15T03:55:05;95529.06;;;15.36;100.00
3960;BME280;1994;48.640;8.894;2022-10-15T03:57:31;95525.69;;;15.30;100.00
3960;BME280;1994;48.640;8.894;2022-10-15T03:59:57;95520.72;;;15.34;100.00
3960;BME280;1994;48.640;8.894;2022-10-15T04:02:23;95532.91;;;15.38;100.00
3960;BME280;1994;48.640;8.894;2022-10-15T04:04:53;95529.56;;;15.38;100.00
3960;BME280;1994;48.640;8.894;2022-10-15T04:07:20;95524.81;;;15.40;100.00
3960;BME280;1994;48.640;8.894;2022-10-15T04:09:46;95515.94;;;15.41;100.00
3960;BME280;1994;48.640;8.894;2022-10-15T04:12:12;95514.38;;;15.40;100.00
3960;BME280;1994;48.640;8.894;2022-10-15T04:14:39;95518.50;;;15.46;100.00
3960;BME280;1994;48.640;8.894;2022-10-15T04:17:05;95517.38;;;15.52;100.00
3960;BME280;1994;48.640;8.894;2022-10-15T04:19:31;95522.59;;;15.52;100.00
3960;BME280;1994;48.640;8.894;2022-10-15T04:21:58;95528.28;;;15.59;100.00
3960;BME280;1994;48.640;8.894;2022-10-15T04:24:24;95524.56;;;15.65;100.00
3960;BME280;1994;48.640;8.894;2022-10-15T04:26:51;95529.84;;;15.60;100.00
3960;BME280;1994;48.640;8.894;2022-10-15T04:29:17;95531.97;;;15.58;100.00
3960;BME280;1994;48.640;8.894;2022-10-15T04:31:43;95536.72;;;15.51;100.00
3960;BME280;1994;48.640;8.894;2022-10-15T04:34:09;95541.03;;;15.60;100.00
3960;BME280;1994;48.640;8.894;2022-10-15T04:36:35;95548.16;;;15.55;100.00
3960;BME280;1994;48.640;8.894;2022-10-15T04:39:02;95545.44;;;15.65;100.00
3960;BME280;1994;48.640;8.894;2022-10-15T04:41:28;95539.69;;;15.63;100.00
3960;BME280;1994;48.640;8.894;2022-10-15T04:43:56;95543.16;;;15.58;100.00
3960;BME280;1994;48.640;8.894;2022-10-15T04:46:22;95546.94;;;15.71;100.00
3960;BME280;1994;48.640;8.894;2022-10-15T04:48:48;95540.16;;;15.70;100.00
3960;BME280;1994;48.640;8.894;2022-10-15T04:51:20;95543.38;;;15.62;100.00
3960;BME280;1994;48.640;8.894;2022-10-15T04:53:46;95544.31;;;15.71;100.00
3960;BME280;1994;48.640;8.894;2022-10-15T04:56:17;95544.31;;;15.71;100.00
3960;BME280;1994;48.640;8.894;2022-10-15T04:58:46;95555.03;;;15.69;100.00
3960;BME280;1994;48.640;8.894;2022-10-15T05:01:15;95551.38;;;15.70;100.00
3960;BME280;1994;48.640;8.894;2022-10-15T05:03:43;95560.69;;;15.76;100.00
3960;BME280;1994;48.640;8.894;2022-10-15T05:06:13;95557.59;;;15.51;100.00
3960;BME280;1994;48.640;8.894;2022-10-15T05:08:40;95558.81;;;15.58;100.00
3960;BME280;1994;48.640;8.894;2022-10-15T05:11:19;95571.16;;;15.53;100.00
3960;BME280;1994;48.640;8.894;2022-10-15T05:13:46;95570.09;;;15.54;100.00
3960;BME280;1994;48.640;8.894;2022-10-15T05:16:25;95571.69;;;15.50;100.00
3960;BME280;1994;48.640;8.894;2022-10-15T05:18:55;95576.94;;;15.50;100.00
3960;BME280;1994;48.640;8.894;2022-10-15T05:21:21;95576.13;;;15.49;100.00
3960;BME280;1994;48.640;8.894;2022-10-15T05:23:47;95560.19;;;15.51;100.00
3960;BME280;1994;48.640;8.894;2022-10-15T05:26:17;95575.91;;;15.46;100.00
3960;BME280;1994;48.640;8.894;2022-10-15T05:28:43;95578.03;;;15.44;100.00
3960;BME280;1994;48.640;8.894;2022-10-15T05:31:18;95582.81;;;15.37;100.00
3960;BME280;1994;48.640;8.894;2022-10-15T05:33:48;95574.41;;;15.40;100.00
3960;BME280;1994;48.640;8.894;2022-10-15T05:36:27;95591.69;;;15.36;100.00
3960;BME280;1994;48.640;8.894;2022-10-15T05:38:58;95601.03;;;15.42;100.00
3960;BME280;1994;48.640;8.894;2022-10-15T05:41:31;95602.91;;;15.36;100.00
3960;BME280;1994;48.640;8.894;2022-10-15T05:43:58;95606.00;;;15.38;100.00
3960;BME280;1994;48.640;8.894;2022-10-15T05:46:24;95608.34;;;15.40;100.00
3960;BME280;1994;48.640;8.894;2022-10-15T05:48:52;95609.66;;;15.37;100.00
3960;BME280;1994;48.640;8.894;2022-10-15T05:51:19;95617.19;;;15.44;100.00
3960;BME280;1994;48.640;8.894;2022-10-15T05:53:44;95618.16;;;15.53;100.00
3960;BME280;1994;48.640;8.894;2022-10-15T05:56:12;95611.50;;;15.37;100.00
3960;BME280;1994;48.640;8.894;2022-10-15T05:58:38;95614.13;;;15.32;100.00
3960;BME280;1994;48.640;8.894;2022-10-15T06:01:08;95611.31;;;15.28;100.00
3960;BME280;1994;48.640;8.894;2022-10-15T06:03:35;95610.22;;;15.34;100.00
3960;BME280;1994;48.640;8.894;2022-10-15T06:06:01;95617.22;;;15.39;100.00
3960;BME280;1994;48.640;8.894;2022-10-15T06:08:28;95614.13;;;15.37;100.00
3960;BME280;1994;48.640;8.894;2022-10-15T06:11:00;95621.44;;;15.35;100.00
3960;BME280;1994;48.640;8.894;2022-10-15T06:13:26;95614.66;;;15.34;100.00
3960;BME280;1994;48.640;8.894;2022-10-15T06:15:51;95621.94;;;15.37;100.00
3960;BME280;1994;48.640;8.894;2022-10-15T06:18:17;95616.44;;;15.38;100.00
3960;BME280;1994;48.640;8.894;2022-10-15T06:20:43;95616.75;;;15.32;100.00
3960;BME280;1994;48.640;8.894;2022-10-15T06:23:10;95620.41;;;15.31;100.00
3960;BME280;1994;48.640;8.894;2022-10-15T06:25:36;95621.44;;;15.30;100.00
3960;BME280;1994;48.640;8.894;2022-10-15T06:28:04;95629.28;;;15.30;100.00
3960;BME280;1994;48.640;8.894;2022-10-15T06:30:31;95635.44;;;15.44;100.00
3960;BME280;1994;48.640;8.894;2022-10-15T06:32:58;95645.44;;;15.37;100.00
3960;BME280;1994;48.640;8.894;2022-10-15T06:35:25;95643.38;;;15.34;100.00
3960;BME280;1994;48.640;8.894;2022-10-15T06:37:51;95650.16;;;15.30;100.00
3960;BME280;1994;48.640;8.894;2022-10-15T06:40:18;95654.84;;;15.33;100.00
3960;BME280;1994;48.640;8.894;2022-10-15T06:42:43;95668.63;;;15.38;100.00
3960;BME280;1994;48.640;8.894;2022-10-15T06:45:10;95673.06;;;15.43;100.00
3960;BME280;1994;48.640;8.894;2022-10-15T06:47:38;95673.06;;;15.43;100.00
3960;BME280;1994;48.640;8.894;2022-10-15T06:50:05;95678.84;;;15.35;100.00
3960;BME280;1994;48.640;8.894;2022-10-15T06:52:31;95688.66;;;15.48;100.00
3960;BME280;1994;48.640;8.894;2022-10-15T06:54:57;95693.19;;;15.37;100.00
3960;BME280;1994;48.640;8.894;2022-10-15T06:57:23;95695.28;;;15.30;100.00
3960;BME280;1994;48.640;8.894;2022-10-15T06:59:50;95693.41;;;15.41;100.00
3960;BME280;1994;48.640;8.894;2022-10-15T07:02:16;95704.34;;;15.48;100.00
3960;BME280;1994;48.640;8.894;2022-10-15T07:04:47;95695.97;;;15.46;100.00
3960;BME280;1994;48.640;8.894;2022-10-15T07:07:13;95701.84;;;15.33;100.00
3960;BME280;1994;48.640;8.894;2022-10-15T07:09:39;95708.06;;;15.37;100.00
3960;BME280;1994;48.640;8.894;2022-10-15T07:12:05;95708.53;;;15.44;100.00
3960;BME280;1994;48.640;8.894;2022-10-15T07:14:31;95716.78;;;15.56;100.00
3960;BME280;1994;48.640;8.894;2022-10-15T07:16:57;95712.66;;;15.50;100.00
3960;BME280;1994;48.640;8.894;2022-10-15T07:19:24;95725.66;;;15.55;100.00
3960;BME280;1994;48.640;8.894;2022-10-15T07:21:49;95723.66;;;15.47;100.00
3960;BME280;1994;48.640;8.894;2022-10-15T07:24:15;95717.34;;;15.53;100.00
3960;BME280;1994;48.640;8.894;2022-10-15T07:26:41;95712.84;;;15.58;100.00
3960;BME280;1994;48.640;8.894;2022-10-15T07:29:07;95726.34;;;15.65;100.00
3960;BME280;1994;48.640;8.894;2022-10-15T07:31:33;95722.59;;;15.48;100.00
3960;BME280;1994;48.640;8.894;2022-10-15T07:33:59;95725.38;;;15.61;100.00
3960;BME280;1994;48.640;8.894;2022-10-15T07:36:25;95725.72;;;15.50;100.00
3960;BME280;1994;48.640;8.894;2022-10-15T07:38:51;95730.84;;;15.60;100.00
3960;BME280;1994;48.640;8.894;2022-10-15T07:41:17;95726.69;;;15.59;100.00
3960;BME280;1994;48.640;8.894;2022-10-15T07:43:43;95723.78;;;15.60;100.00
3960;BME280;1994;48.640;8.894;2022-10-15T07:46:08;95726.69;;;15.59;100.00
3960;BME280;1994;48.640;8.894;2022-10-15T07:48:34;95741.78;;;15.62;100.00
3960;BME280;1994;48.640;8.894;2022-10-15T07:51:05;95725.72;;;15.50;100.00
3960;BME280;1994;48.640;8.894;2022-10-15T07:53:32;95728.69;;;15.67;100.00
3960;BME280;1994;48.640;8.894;2022-10-15T07:56:06;95726.13;;;15.62;100.00
3960;BME280;1994;48.640;8.894;2022-10-15T07:58:37;95740.25;;;15.61;100.00
3960;BME280;1994;48.640;8.894;2022-10-15T08:01:05;95738.03;;;15.73;100.00
3960;BME280;1994;48.640;8.894;2022-10-15T08:03:31;95747.81;;;15.62;100.00
3960;BME280;1994;48.640;8.894;2022-10-15T08:06:05;95751.47;;;15.61;100.00
3960;BME280;1994;48.640;8.894;2022-10-15T08:08:33;95757.63;;;15.42;100.00
3960;BME280;1994;48.640;8.894;2022-10-15T08:11:08;95743.97;;;15.50;100.00
3960;BME280;1994;48.640;8.894;2022-10-15T08:13:34;95731.69;;;15.55;100.00
3960;BME280;1994;48.640;8.894;2022-10-15T08:16:00;95736.03;;;15.65;100.00
3960;BME280;1994;48.640;8.894;2022-10-15T08:18:26;95733.91;;;15.67;100.00
3960;BME280;1994;48.640;8.894;2022-10-15T08:20:52;95732.59;;;15.69;100.00
3960;BME280;1994;48.640;8.894;2022-10-15T08:23:18;95732.06;;;15.72;100.00
3960;BME280;1994;48.640;8.894;2022-10-15T08:25:44;95725.41;;;15.85;100.00
3960;BME280;1994;48.640;8.894;2022-10-15T08:28:10;95719.09;;;15.91;100.00
3960;BME280;1994;48.640;8.894;2022-10-15T08:30:37;95718.09;;;15.87;100.00
3960;BME280;1994;48.640;8.894;2022-10-15T08:33:03;95726.81;;;16.01;100.00
3960;BME280;1994;48.640;8.894;2022-10-15T08:35:28;95730.97;;;16.07;100.00
3960;BME280;1994;48.640;8.894;2022-10-15T08:38:00;95737.13;;;16.16;100.00
3960;BME280;1994;48.640;8.894;2022-10-15T08:40:26;95736.69;;;16.09;100.00
3960;BME280;1994;48.640;8.894;2022-10-15T08:42:53;95731.63;;;16.17;100.00
3960;BME280;1994;48.640;8.894;2022-10-15T08:45:41;95737.34;;;16.19;100.00
3960;BME280;1994;48.640;8.894;2022-10-15T08:48:32;95742.97;;;16.08;100.00
3960;BME280;1994;48.640;8.894;2022-10-15T08:51:05;95742.56;;;16.19;100.00
3960;BME280;1994;48.640;8.894;2022-10-15T08:53:38;95754.34;;;16.17;100.00
3960;BME280;1994;48.640;8.894;2022-10-15T09:02:15;95751.59;;;16.32;100.00
3960;BME280;1994;48.640;8.894;2022-10-15T09:05:00;95757.00;;;16.40;100.00
3960;BME280;1994;48.640;8.894;2022-10-15T09:07:46;95754.16;;;16.37;100.00
3960;BME280;1994;48.640;8.894;2022-10-15T09:13:04;95757.06;;;16.59;100.00
3960;BME280;1994;48.640;8.894;2022-10-15T09:15:40;95767.00;;;16.62;100.00
3960;BME280;1994;48.640;8.894;2022-10-15T09:18:22;95774.19;;;16.70;100.00
3960;BME280;1994;48.640;8.894;2022-10-15T09:20:49;95770.28;;;16.91;100.00
3960;BME280;1994;48.640;8.894;2022-10-15T09:23:24;95762.28;;;17.43;100.00
3960;BME280;1994;48.640;8.894;2022-10-15T09:26:21;95773.38;;;18.17;98.77
3960;BME280;1994;48.640;8.894;2022-10-15T09:35:42;95783.50;;;17.60;95.63
3960;BME280;1994;48.640;8.894;2022-10-15T09:38:37;95775.97;;;17.72;97.97
3960;BME280;1994;48.640;8.894;2022-10-15T09:44:02;95787.78;;;20.29;86.17
3960;BME280;1994;48.640;8.894;2022-10-15T09:46:28;95797.88;;;20.75;79.91
3960;BME280;1994;48.640;8.894;2022-10-15T09:49:10;95789.16;;;20.57;79.46
3960;BME280;1994;48.640;8.894;2022-10-15T09:54:50;95785.75;;;21.13;76.09
3960;BME280;1994;48.640;8.894;2022-10-15T09:57:21;95788.88;;;21.15;77.47
3960;BME280;1994;48.640;8.894;2022-10-15T10:00:00;95786.31;;;20.45;77.67
3960;BME280;1994;48.640;8.894;2022-10-15T10:02:27;95798.78;;;21.18;73.41
3960;BME280;1994;48.640;8.894;2022-10-15T10:04:54;95799.13;;;20.77;76.46
3960;BME280;1994;48.640;8.894;2022-10-15T10:09:59;95807.13;;;20.33;77.92
3960;BME280;1994;48.640;8.894;2022-10-15T10:12:44;95807.06;;;20.03;79.39
3960;BME280;1994;48.640;8.894;2022-10-15T10:15:36;95814.25;;;19.18;82.23
3960;BME280;1994;48.640;8.894;2022-10-15T10:18:03;95817.16;;;19.16;80.36
3960;BME280;1994;48.640;8.894;2022-10-15T10:20:33;95814.44;;;19.35;81.82
3960;BME280;1994;48.640;8.894;2022-10-15T10:23:02;95814.22;;;19.45;81.52
3960;BME280;1994;48.640;8.894;2022-10-15T10:25:45;95812.06;;;19.47;80.16
3960;BME280;1994;48.640;8.894;2022-10-15T10:33:40;95826.00;;;20.27;73.70
3960;BME280;1994;48.640;8.894;2022-10-15T10:36:18;95824.06;;;19.97;75.29
3960;BME280;1994;48.640;8.894;2022-10-15T10:39:01;95827.47;;;19.40;79.33
3960;BME280;1994;48.640;8.894;2022-10-15T10:41:56;95836.50;;;19.20;81.94
3960;BME280;1994;48.640;8.894;2022-10-15T10:44:34;95827.19;;;18.74;80.82
3960;BME280;1994;48.640;8.894;2022-10-15T10:49:46;95836.81;;;18.92;82.98
3960;BME280;1994;48.640;8.894;2022-10-15T10:52:34;95828.56;;;18.71;82.04
3960;BME280;1994;48.640;8.894;2022-10-15T10:55:17;95832.31;;;18.52;80.16
3960;BME280;1994;48.640;8.894;2022-10-15T10:57:57;95835.06;;;18.60;82.28
3960;BME280;1994;48.640;8.894;2022-10-15T11:00:48;95825.69;;;18.41;82.84
3960;BME280;1994;48.640;8.894;2022-10-15T11:03:34;95831.66;;;18.28;81.88
3960;BME280;1994;48.640;8.894;2022-10-15T11:09:27;95827.00;;;18.25;85.44
3960;BME280;1994;48.640;8.894;2022-10-15T11:12:38;95824.22;;;18.16;85.71
3960;BME280;1994;48.640;8.894;2022-10-15T11:16:00;95821.69;;;17.98;83.97
3960;BME280;1994;48.640;8.894;2022-10-15T11:21:24;95826.22;;;17.92;83.78
3960;BME280;1994;48.640;8.894;2022-10-15T11:24:21;95820.97;;;17.92;86.06
3960;BME280;1994;48.640;8.894;2022-10-15T11:27:21;95821.28;;;18.04;84.56
3960;BME280;1994;48.640;8.894;2022-10-15T11:31:08;95824.38;;;17.93;83.49
3960;BME280;1994;48.640;8.894;2022-10-15T11:40:10;95820.78;;;18.21;81.12
3960;BME280;1994;48.640;8.894;2022-10-15T11:43:02;95812.00;;;18.12;82.29
3960;BME280;1994;48.640;8.894;2022-10-15T11:48:39;95809.88;;;18.14;82.42
3960;BME280;1994;48.640;8.894;2022-10-15T11:51:22;95814.13;;;18.10;81.26
3960;BME280;1994;48.640;8.894;2022-10-15T11:56:53;95788.09;;;18.00;82.69
3960;BME280;1994;48.640;8.894;2022-10-15T11:59:37;95777.84;;;18.17;82.74
3960;BME280;1994;48.640;8.894;2022-10-15T12:02:14;95771.59;;;18.13;81.29
3960;BME280;1994;48.640;8.894;2022-10-15T12:04:50;95777.31;;;18.01;81.14
3960;BME280;1994;48.640;8.894;2022-10-15T12:07:36;95772.53;;;17.90;80.73
3960;BME280;1994;48.640;8.894;2022-10-15T12:13:22;95760.66;;;17.79;83.78
3960;BME280;1994;48.640;8.894;2022-10-15T12:19:17;95755.59;;;17.50;87.79
3960;BME280;1994;48.640;8.894;2022-10-15T12:27:35;95759.00;;;17.51;88.32
3960;BME280;1994;48.640;8.894;2022-10-15T12:32:29;95775.06;;;17.63;87.65
3960;BME280;1994;48.640;8.894;2022-10-15T12:35:03;95774.00;;;17.64;87.33
3960;BME280;1994;48.640;8.894;2022-10-15T12:37:33;95775.97;;;17.72;86.05
3960;BME280;1994;48.640;8.894;2022-10-15T12:43:00;95775.13;;;17.58;86.10
3960;BME280;1994;48.640;8.894;2022-10-15T12:45:37;95768.75;;;17.64;84.87
3960;BME280;1994;48.640;8.894;2022-10-15T12:50:33;95769.19;;;17.71;84.62
3960;BME280;1994;48.640;8.894;2022-10-15T12:53:11;95769.19;;;17.71;85.21
3960;BME280;1994;48.640;8.894;2022-10-15T12:58:54;95763.03;;;17.94;85.23
3960;BME280;1994;48.640;8.894;2022-10-15T13:11:45;95757.31;;;17.60;84.75
3960;BME280;1994;48.640;8.894;2022-10-15T13:14:37;95761.47;;;17.61;85.54
3960;BME280;1994;48.640;8.894;2022-10-15T13:17:14;95766.78;;;17.56;85.55
3960;BME280;1994;48.640;8.894;2022-10-15T13:19:59;95772.84;;;17.70;86.67
3960;BME280;1994;48.640;8.894;2022-10-15T13:22:31;95767.84;;;17.73;87.52
3960;BME280;1994;48.640;8.894;2022-10-15T13:24:57;95764.81;;;17.48;89.24
3960;BME280;1994;48.640;8.894;2022-10-15T13:27:25;95759.78;;;17.33;91.86
3960;BME280;1994;48.640;8.894;2022-10-15T13:30:04;95767.78;;;17.23;92.11
3960;BME280;1994;48.640;8.894;2022-10-15T13:32:36;95761.19;;;17.25;93.78
3960;BME280;1994;48.640;8.894;2022-10-15T13:35:11;95767.56;;;17.19;93.55
3960;BME280;1994;48.640;8.894;2022-10-15T13:37:42;95756.16;;;17.29;93.84
3960;BME280;1994;48.640;8.894;2022-10-15T13:40:27;95763.38;;;17.37;92.60
3960;BME280;1994;48.640;8.894;2022-10-15T13:43:03;95767.28;;;17.39;91.42
3960;BME280;1994;48.640;8.894;2022-10-15T13:45:31;95764.50;;;17.31;90.05
3960;BME280;1994;48.640;8.894;2022-10-15T13:47:58;95768.66;;;17.32;90.22
3960;BME280;1994;48.640;8.894;2022-10-15T13:50:30;95774.97;;;17.31;91.14
3960;BME280;1994;48.640;8.894;2022-10-15T13:53:34;95774.00;;;17.27;90.75
3960;BME280;1994;48.640;8.894;2022-10-15T13:56:18;95774.41;;;17.34;91.24
3960;BME280;1994;48.640;8.894;2022-10-15T13:58:46;95777.47;;;17.41;91.12
3960;BME280;1994;48.640;8.894;2022-10-15T14:01:20;95787.47;;;17.39;89.69
3960;BME280;1994;48.640;8.894;2022-10-15T14:03:58;95770.97;;;17.38;90.63
3960;BME280;1994;48.640;8.894;2022-10-15T14:06:35;95768.47;;;17.28;89.06
3960;BME280;1994;48.640;8.894;2022-10-15T14:09:21;95759.56;;;17.48;88.63
3960;BME280;1994;48.640;8.894;2022-10-15T14:11:49;95761.16;;;17.49;88.96
3960;BME280;1994;48.640;8.894;2022-10-15T14:19:54;95778.66;;;17.67;87.42
3960;BME280;1994;48.640;8.894;2022-10-15T14:22:23;95772.44;;;17.63;87.07
3960;BME280;1994;48.640;8.894;2022-10-15T14:24:53;95780.81;;;17.65;86.57
3960;BME280;1994;48.640;8.894;2022-10-15T14:27:25;95773.16;;;17.68;87.80
3960;BME280;1994;48.640;8.894;2022-10-15T14:29:58;95773.28;;;17.77;86.72
3960;BME280;1994;48.640;8.894;2022-10-15T14:32:26;95780.41;;;17.71;86.57
3960;BME280;1994;48.640;8.894;2022-10-15T14:34:58;95770.06;;;17.80;86.27
3960;BME280;1994;48.640;8.894;2022-10-15T14:42:43;95775.84;;;17.95;85.88
3960;BME280;1994;48.640;8.894;2022-10-15T14:45:26;95766.28;;;17.86;86.73
3960;BME280;1994;48.640;8.894;2022-10-15T14:48:01;95773.13;;;17.87;85.83
3960;BME280;1994;48.640;8.894;2022-10-15T14:50:35;95775.66;;;17.92;84.04
3960;BME280;1994;48.640;8.894;2022-10-15T14:53:13;95778.34;;;17.87;85.09
3960;BME280;1994;48.640;8.894;2022-10-15T14:56:02;95777.94;;;17.80;84.53
3960;BME280;1994;48.640;8.894;2022-10-15T14:58:31;95777.94;;;17.80;85.59
3960;BME280;1994;48.640;8.894;2022-10-15T15:01:20;95770.78;;;17.85;86.38
3960;BME280;1994;48.640;8.894;2022-10-15T15:03:56;95775.66;;;17.92;85.50
3960;BME280;1994;48.640;8.894;2022-10-15T15:06:22;95766.56;;;18.03;83.53
3960;BME280;1994;48.640;8.894;2022-10-15T15:08:47;95776.44;;;18.06;84.33
3960;BME280;1994;48.640;8.894;2022-10-15T15:11:22;95794.13;;;18.00;83.89
3960;BME280;1994;48.640;8.894;2022-10-15T15:13:53;95781.13;;;18.09;84.55
3960;BME280;1994;48.640;8.894;2022-10-15T15:16:19;95774.16;;;18.18;85.04
3960;BME280;1994;48.640;8.894;2022-10-15T15:18:45;95786.28;;;18.14;84.27
3960;BME280;1994;48.640;8.894;2022-10-15T15:21:19;95779.00;;;18.11;83.70
3960;BME280;1994;48.640;8.894;2022-10-15T15:23:50;95790.78;;;17.95;83.88
3960;BME280;1994;48.640;8.894;2022-10-15T15:26:16;95772.88;;;17.83;84.76
3960;BME280;1994;48.640;8.894;2022-10-15T15:28:41;95778.66;;;17.67;84.64
3960;BME280;1994;48.640;8.894;2022-10-15T15:31:13;95776.53;;;17.69;84.39
3960;BME280;1994;48.640;8.894;2022-10-15T15:33:40;95779.75;;;17.66;85.16
3960;BME280;1994;48.640;8.894;2022-10-15T15:36:17;95774.16;;;17.54;85.40
3960;BME280;1994;48.640;8.894;2022-10-15T15:38:43;95784.63;;;17.54;85.59